createdAt,value
2019-03-23T00:00:37.266Z,20.20
2019-03-23T00:03:09.952Z,18.23
2019-03-23T00:05:45.256Z,19.60
2019-03-23T00:08:19.117Z,19.37
2019-03-23T00:10:57.508Z,20.50
2019-03-23T00:13:30.245Z,19.27
2019-03-23T00:16:04.840Z,16.43
2019-03-23T00:18:37.192Z,18.60
2019-03-23T00:21:09.530Z,18.57
2019-03-23T00:23:41.212Z,21.63
2019-03-23T00:26:16.673Z,21.90
2019-03-23T00:28:48.987Z,16.53
2019-03-23T00:31:20.922Z,14.63
2019-03-23T00:33:53.277Z,22.60
2019-03-23T00:36:25.298Z,19.10
2019-03-23T00:38:57.640Z,16.30
2019-03-23T00:41:30.669Z,19.00
2019-03-23T00:44:03.016Z,17.83
2019-03-23T00:46:39.505Z,22.30
2019-03-23T00:49:11.239Z,22.43
2019-03-23T00:51:44.339Z,17.57
2019-03-23T00:54:16.566Z,20.60
2019-03-23T00:56:51.793Z,20.60
2019-03-23T00:59:23.910Z,19.27
2019-03-23T01:01:55.382Z,19.93
2019-03-23T01:04:27.725Z,20.43
2019-03-23T01:07:00.299Z,18.77
2019-03-23T01:09:31.976Z,18.77
2019-03-23T01:12:04.059Z,16.70
2019-03-23T01:14:36.149Z,18.40
2019-03-23T01:17:08.231Z,17.87
2019-03-23T01:19:40.247Z,15.17
2019-03-23T01:22:12.137Z,17.03
2019-03-23T01:24:44.157Z,20.17
2019-03-23T01:27:15.718Z,21.10
2019-03-23T01:29:47.878Z,15.30
2019-03-23T01:32:20.264Z,16.73
2019-03-23T01:34:51.938Z,16.80
2019-03-23T01:37:23.719Z,17.87
2019-03-23T01:39:55.785Z,15.90
2019-03-23T01:42:28.160Z,14.57
2019-03-23T01:44:59.952Z,19.30
2019-03-23T01:47:31.836Z,14.57
2019-03-23T01:50:04.007Z,16.50
2019-03-23T01:52:36.094Z,13.67
2019-03-23T01:55:08.615Z,13.57
2019-03-23T01:57:40.758Z,13.17
2019-03-23T02:00:12.930Z,12.87
2019-03-23T02:02:47.510Z,16.60
2019-03-23T02:05:19.076Z,16.27
2019-03-23T02:07:51.270Z,18.03
2019-03-23T02:10:23.811Z,16.07
2019-03-23T02:12:55.922Z,15.27
2019-03-23T02:15:27.727Z,13.60
2019-03-23T02:18:04.107Z,16.43
2019-03-23T02:20:38.258Z,14.83
2019-03-23T02:23:10.492Z,13.40
2019-03-23T02:25:42.580Z,15.43
2019-03-23T02:28:14.647Z,12.30
2019-03-23T02:30:46.273Z,16.03
2019-03-23T02:33:18.291Z,14.03
2019-03-23T02:35:49.988Z,12.90
2019-03-23T02:38:22.569Z,14.17
2019-03-23T02:40:54.285Z,13.23
2019-03-23T02:43:26.300Z,11.73
2019-03-23T02:46:00.087Z,12.17
2019-03-23T02:48:31.803Z,10.73
2019-03-23T02:51:03.324Z,13.80
2019-03-23T02:53:35.373Z,13.97
2019-03-23T02:56:10.249Z,17.30
2019-03-23T02:58:42.386Z,16.80
2019-03-23T03:01:14.288Z,16.00
2019-03-23T03:03:46.485Z,12.87
2019-03-23T03:06:18.075Z,13.10
2019-03-23T03:08:50.311Z,13.73
2019-03-23T03:11:22.188Z,13.33
2019-03-23T03:13:54.388Z,12.90
2019-03-23T03:16:26.351Z,13.37
2019-03-23T03:18:58.129Z,11.10
2019-03-23T03:21:30.081Z,12.67
2019-03-23T03:24:03.258Z,13.93
2019-03-23T03:26:34.990Z,13.73
2019-03-23T03:29:06.615Z,14.93
2019-03-23T03:31:38.232Z,15.13
2019-03-23T03:34:10.723Z,15.93
2019-03-23T03:36:42.891Z,15.57
2019-03-23T03:39:14.903Z,15.83
2019-03-23T03:41:46.835Z,12.30
2019-03-23T03:44:18.492Z,15.70
2019-03-23T03:46:50.410Z,14.60
2019-03-23T03:49:22.507Z,11.30
2019-03-23T03:51:54.233Z,11.80
2019-03-23T03:54:26.254Z,12.57
2019-03-23T03:56:57.810Z,11.47
2019-03-23T03:59:29.359Z,10.73
2019-03-23T04:02:01.669Z,9.97
2019-03-23T04:04:33.115Z,13.47
2019-03-23T04:07:06.373Z,14.93
2019-03-23T04:09:40.457Z,13.20
2019-03-23T04:12:12.386Z,11.33
2019-03-23T04:14:43.937Z,14.20
2019-03-23T04:17:17.186Z,12.80
2019-03-23T04:19:49.063Z,15.83
2019-03-23T04:22:20.649Z,13.30
2019-03-23T04:24:52.521Z,14.37
2019-03-23T04:27:24.585Z,14.20
2019-03-23T04:29:56.492Z,19.17
2019-03-23T04:32:28.913Z,12.80
2019-03-23T04:35:01.024Z,13.50
2019-03-23T04:37:32.985Z,13.03
2019-03-23T04:40:04.963Z,12.80
2019-03-23T04:42:36.845Z,15.60
2019-03-23T04:45:09.165Z,13.20
2019-03-23T04:47:41.511Z,13.63
2019-03-23T04:50:13.165Z,12.00
2019-03-23T04:52:45.096Z,11.00
2019-03-23T04:55:16.928Z,15.57
2019-03-23T04:57:48.947Z,13.30
2019-03-23T05:00:20.651Z,15.10
2019-03-23T05:02:53.324Z,13.93
2019-03-23T05:05:25.143Z,17.00
2019-03-23T05:07:56.521Z,14.60
2019-03-23T05:10:28.484Z,15.23
2019-03-23T05:13:01.343Z,17.20
2019-03-23T05:15:36.229Z,13.50
2019-03-23T05:18:08.437Z,11.90
2019-03-23T05:20:41.143Z,16.23
2019-03-23T05:23:13.695Z,11.97
2019-03-23T05:25:45.296Z,15.93
2019-03-23T05:28:19.179Z,14.57
2019-03-23T05:30:50.844Z,11.70
2019-03-23T05:33:22.798Z,17.13
2019-03-23T05:35:54.976Z,17.43
2019-03-23T05:38:27.076Z,12.13
2019-03-23T05:41:00.131Z,13.77
2019-03-23T05:43:32.660Z,12.50
2019-03-23T05:46:04.662Z,14.50
2019-03-23T05:48:37.077Z,12.17
2019-03-23T05:51:09.220Z,12.90
2019-03-23T05:53:41.595Z,13.87
2019-03-23T05:56:13.491Z,17.00
2019-03-23T05:58:45.289Z,16.67
2019-03-23T06:01:17.315Z,13.83
2019-03-23T06:03:49.234Z,19.37
2019-03-23T06:06:20.932Z,18.27
2019-03-23T06:08:55.254Z,18.60
2019-03-23T06:11:26.345Z,27.73
2019-03-23T06:13:58.553Z,24.73
2019-03-23T06:16:30.276Z,27.20
2019-03-23T06:19:01.968Z,23.80
2019-03-23T06:21:34.435Z,17.60
2019-03-23T06:24:06.383Z,14.40
2019-03-23T06:26:39.187Z,17.13
2019-03-23T06:29:11.840Z,16.73
2019-03-23T06:31:44.136Z,16.50
2019-03-23T06:34:15.741Z,14.23
2019-03-23T06:36:48.322Z,16.20
2019-03-23T06:39:20.083Z,18.57
2019-03-23T06:41:51.937Z,17.80
2019-03-23T06:44:23.487Z,16.47
2019-03-23T06:46:55.510Z,12.93
2019-03-23T06:49:28.073Z,14.70
2019-03-23T06:52:00.304Z,13.93
2019-03-23T06:54:31.888Z,13.97
2019-03-23T06:57:05.877Z,16.20
2019-03-23T06:59:40.420Z,14.70
2019-03-23T07:02:15.471Z,14.73
2019-03-23T07:04:48.782Z,16.83
2019-03-23T07:07:20.650Z,13.03
2019-03-23T07:09:53.038Z,19.93
2019-03-23T07:12:25.282Z,16.07
2019-03-23T07:14:57.014Z,14.83
2019-03-23T07:17:28.877Z,20.07
2019-03-23T07:20:01.023Z,12.83
2019-03-23T07:22:34.105Z,16.60
2019-03-23T07:25:06.944Z,17.50
2019-03-23T07:27:41.928Z,16.93
2019-03-23T07:30:16.091Z,14.47
2019-03-23T07:32:47.845Z,13.10
2019-03-23T07:35:20.193Z,14.20
2019-03-23T07:37:57.110Z,12.93
2019-03-23T07:40:29.181Z,14.03
2019-03-23T07:43:00.887Z,18.97
2019-03-23T07:45:33.062Z,14.23
2019-03-23T07:48:05.079Z,14.07
2019-03-23T07:50:38.116Z,13.03
2019-03-23T07:53:10.426Z,12.43
2019-03-23T07:55:42.291Z,12.73
2019-03-23T07:58:21.310Z,12.27
2019-03-23T08:00:53.297Z,9.97
2019-03-23T08:03:25.259Z,11.03
2019-03-23T08:05:57.212Z,11.37
2019-03-23T08:08:35.066Z,11.70
2019-03-23T08:11:12.020Z,11.93
2019-03-23T08:13:46.833Z,11.03
2019-03-23T08:16:19.580Z,11.23
2019-03-23T08:18:55.809Z,11.90
2019-03-23T08:21:29.936Z,13.67
2019-03-23T08:24:03.370Z,11.17
2019-03-23T08:26:42.388Z,11.23
2019-03-23T08:29:27.836Z,12.27
2019-03-23T08:32:03.366Z,13.33
2019-03-23T08:34:36.015Z,10.60
2019-03-23T08:37:10.453Z,11.40
2019-03-23T08:39:48.493Z,11.07
2019-03-23T08:42:16.940Z,11.03
2019-03-23T08:44:50.039Z,11.03
2019-03-23T08:47:26.075Z,11.37
2019-03-23T08:49:59.643Z,11.73
2019-03-23T08:52:31.558Z,12.20
2019-03-23T08:55:06.913Z,10.97
2019-03-23T08:57:42.417Z,11.50
2019-03-23T09:00:51.449Z,11.37
2019-03-23T09:03:25.023Z,18.00
2019-03-23T09:05:57.011Z,14.23
2019-03-23T09:08:30.672Z,12.97
2019-03-23T09:11:05.443Z,12.63
2019-03-23T09:13:40.801Z,11.00
2019-03-23T09:16:15.716Z,12.80
2019-03-23T09:18:47.377Z,12.37
2019-03-23T09:21:23.738Z,13.10
2019-03-23T09:24:08.914Z,21.87
2019-03-23T09:26:42.075Z,14.97
2019-03-23T09:29:25.176Z,19.33
2019-03-23T09:32:02.261Z,15.53
2019-03-23T09:34:36.957Z,15.77
2019-03-23T09:37:09.316Z,18.43
2019-03-23T09:39:43.859Z,15.60
2019-03-23T09:42:15.826Z,16.83
2019-03-23T09:44:47.722Z,16.33
2019-03-23T09:47:19.570Z,14.03
2019-03-23T09:49:56.471Z,16.77
2019-03-23T09:52:43.096Z,15.83
2019-03-23T09:55:17.989Z,15.23
2019-03-23T09:57:59.409Z,16.00
2019-03-23T10:00:33.188Z,16.03
2019-03-23T10:03:05.959Z,16.97
2019-03-23T10:05:42.645Z,16.10
2019-03-23T10:08:56.477Z,15.60
2019-03-23T10:11:29.701Z,17.03
2019-03-23T10:14:03.188Z,13.83
2019-03-23T10:16:43.836Z,13.13
2019-03-23T10:19:23.307Z,16.40
2019-03-23T10:21:55.214Z,14.00
2019-03-23T10:24:27.484Z,13.93
2019-03-23T10:26:59.852Z,15.80
2019-03-23T10:29:33.432Z,13.97
2019-03-23T10:32:07.991Z,14.47
2019-03-23T10:34:48.274Z,13.20
2019-03-23T10:37:20.470Z,13.10
2019-03-23T10:39:52.829Z,14.53
2019-03-23T10:42:56.315Z,13.53
2019-03-23T10:45:56.000Z,18.13
2019-03-23T10:48:29.983Z,17.27
2019-03-23T10:51:01.522Z,13.20
2019-03-23T10:53:36.955Z,13.87
2019-03-23T10:56:09.019Z,13.77
2019-03-23T10:58:40.636Z,13.77
2019-03-23T11:01:13.306Z,14.97
2019-03-23T11:03:46.302Z,16.17
2019-03-23T11:06:18.355Z,12.23
2019-03-23T11:08:57.010Z,13.77
2019-03-23T11:11:36.314Z,12.80
2019-03-23T11:14:13.386Z,14.57
2019-03-23T11:16:48.941Z,14.97
2019-03-23T11:19:25.783Z,13.40
2019-03-23T11:22:21.337Z,11.73
2019-03-23T11:24:55.101Z,13.90
2019-03-23T11:27:35.506Z,12.23
2019-03-23T11:30:10.338Z,12.37
2019-03-23T11:32:42.115Z,13.47
2019-03-23T11:35:14.412Z,11.90
2019-03-23T11:37:49.199Z,12.63
2019-03-23T11:40:25.411Z,13.23
2019-03-23T11:42:57.380Z,13.23
2019-03-23T11:45:36.848Z,13.60
2019-03-23T11:48:08.781Z,12.17
2019-03-23T11:50:42.372Z,12.53
2019-03-23T11:53:14.671Z,14.80
2019-03-23T11:55:46.327Z,13.33
2019-03-23T11:58:17.934Z,14.23
2019-03-23T12:00:51.378Z,13.30
2019-03-23T12:03:23.098Z,12.60
2019-03-23T12:05:57.825Z,14.87
2019-03-23T12:08:30.600Z,12.77
2019-03-23T12:11:04.089Z,14.00
2019-03-23T12:13:35.875Z,15.60
2019-03-23T12:16:07.874Z,13.60
2019-03-23T12:18:43.097Z,13.20
2019-03-23T12:21:15.096Z,12.07
2019-03-23T12:23:47.307Z,11.60
2019-03-23T12:26:19.151Z,10.90
2019-03-23T12:28:51.288Z,10.77
2019-03-23T12:31:23.656Z,13.47
2019-03-23T12:33:55.755Z,16.87
2019-03-23T12:36:37.502Z,22.10
2019-03-23T12:39:13.330Z,26.90
2019-03-23T12:41:46.419Z,17.03
2019-03-23T12:44:26.700Z,16.83
2019-03-23T12:47:00.751Z,21.00
2019-03-23T12:49:36.110Z,22.90
2019-03-23T12:52:09.135Z,23.87
2019-03-23T12:54:43.152Z,23.40
2019-03-23T12:57:17.164Z,28.77
2019-03-23T12:59:58.836Z,25.63
2019-03-23T13:02:34.461Z,26.90
2019-03-23T13:05:07.156Z,31.87
2019-03-23T13:07:43.622Z,33.20
2019-03-23T13:10:18.435Z,33.63
2019-03-23T13:12:52.139Z,27.47
2019-03-23T13:15:25.225Z,24.87
2019-03-23T13:17:58.105Z,31.40
2019-03-23T13:20:37.867Z,33.30
2019-03-23T13:23:12.665Z,31.10
2019-03-23T13:25:45.980Z,31.83
2019-03-23T13:28:20.814Z,29.20
2019-03-23T13:30:55.852Z,28.77
2019-03-23T13:33:35.027Z,29.23
2019-03-23T13:36:10.888Z,31.13
2019-03-23T13:38:45.426Z,28.57
2019-03-23T13:41:17.655Z,29.33
2019-03-23T13:43:50.078Z,31.13
2019-03-23T13:46:22.199Z,30.43
2019-03-23T13:49:04.578Z,30.70
2019-03-23T13:51:40.923Z,30.73
2019-03-23T13:54:22.181Z,35.03
2019-03-23T13:56:55.589Z,33.23
2019-03-23T13:59:30.389Z,32.83
2019-03-23T14:02:02.111Z,33.80
2019-03-23T14:04:33.744Z,33.27
2019-03-23T14:07:09.519Z,32.43
2019-03-23T14:09:41.344Z,32.40
2019-03-23T14:14:57.361Z,31.17
2019-03-23T14:17:29.196Z,28.93
2019-03-23T14:20:01.572Z,28.63
2019-03-23T14:22:33.109Z,30.10
2019-03-23T14:25:05.171Z,29.03
2019-03-23T14:27:37.215Z,31.03
2019-03-23T14:30:09.278Z,32.20
2019-03-23T14:32:46.107Z,29.67
2019-03-23T14:35:17.715Z,31.97
2019-03-23T14:37:55.092Z,29.03
2019-03-23T14:40:41.918Z,33.97
2019-03-23T14:43:13.406Z,31.17
2019-03-23T14:45:45.232Z,31.20
2019-03-23T14:48:17.091Z,30.10
2019-03-23T14:50:56.262Z,29.63
2019-03-23T14:53:29.115Z,30.20
2019-03-23T14:56:03.679Z,30.20
2019-03-23T14:58:36.337Z,30.23
2019-03-23T15:01:08.549Z,29.93
2019-03-23T15:03:39.956Z,28.60
2019-03-23T15:06:11.731Z,33.03
2019-03-23T15:08:46.113Z,29.57
2019-03-23T15:11:19.447Z,31.57
2019-03-23T15:13:53.087Z,30.20
2019-03-23T15:16:25.085Z,30.80
2019-03-23T15:18:56.657Z,31.83
2019-03-23T15:21:27.939Z,30.00
2019-03-23T15:24:01.287Z,31.93
2019-03-23T15:26:33.833Z,31.60
2019-03-23T15:29:05.917Z,29.37
2019-03-23T15:31:37.363Z,24.87
2019-03-23T15:34:10.156Z,23.57
2019-03-23T15:36:43.139Z,20.97
2019-03-23T15:39:15.423Z,19.70
2019-03-23T15:42:07.095Z,22.93
2019-03-23T15:44:41.201Z,18.73
2019-03-23T15:47:12.548Z,19.43
2019-03-23T15:49:47.269Z,18.70
2019-03-23T15:52:21.395Z,19.47
2019-03-23T15:54:54.150Z,17.87
2019-03-23T15:57:25.412Z,21.03
2019-03-23T15:59:58.464Z,17.70
2019-03-23T16:02:30.058Z,18.67
2019-03-23T16:05:01.876Z,20.60
2019-03-23T16:07:33.703Z,21.17
2019-03-23T16:10:06.211Z,20.33
2019-03-23T16:12:38.230Z,18.00
2019-03-23T16:15:11.772Z,22.97
2019-03-23T16:17:43.486Z,49.73
2019-03-23T16:20:23.584Z,49.23
2019-03-23T16:22:54.831Z,57.73
2019-03-23T16:25:28.396Z,61.97
2019-03-23T16:28:00.296Z,66.53
2019-03-23T16:30:33.740Z,54.30
2019-03-23T16:33:05.381Z,66.97
2019-03-23T16:35:38.029Z,60.90
2019-03-23T16:38:12.335Z,62.17
2019-03-23T16:40:44.212Z,65.27
2019-03-23T16:43:22.278Z,65.00
2019-03-23T16:45:53.988Z,63.67
2019-03-23T16:48:26.105Z,63.43
2019-03-23T16:51:02.188Z,62.03
2019-03-23T16:53:36.380Z,63.50
2019-03-23T16:56:08.091Z,64.73
2019-03-23T16:58:40.074Z,67.93
2019-03-23T17:01:12.111Z,71.17
2019-03-23T17:03:43.511Z,72.27
2019-03-23T17:06:14.791Z,73.10
2019-03-23T17:08:46.983Z,76.73
2019-03-23T17:11:19.098Z,75.07
2019-03-23T17:13:53.292Z,72.70
2019-03-23T17:16:24.769Z,71.67
2019-03-23T17:19:02.087Z,63.97
2019-03-23T17:21:36.668Z,68.10
2019-03-23T17:24:08.280Z,77.37
2019-03-23T17:26:39.688Z,73.63
2019-03-23T17:29:11.453Z,75.87
2019-03-23T17:31:43.835Z,68.80
2019-03-23T17:34:16.710Z,68.87
2019-03-23T17:36:54.196Z,62.93
2019-03-23T17:39:25.913Z,66.70
2019-03-23T17:41:57.582Z,76.20
2019-03-23T17:44:30.410Z,74.70
2019-03-23T17:47:25.314Z,72.30
2019-03-23T17:49:57.330Z,66.90
2019-03-23T17:52:31.103Z,70.23
2019-03-23T17:55:07.840Z,66.10
2019-03-23T17:57:40.055Z,67.80
2019-03-23T18:00:16.685Z,64.47
2019-03-23T18:02:49.163Z,71.47
2019-03-23T18:05:22.248Z,68.77
2019-03-23T18:07:54.278Z,74.90
2019-03-23T18:10:28.333Z,75.03
2019-03-23T18:13:29.283Z,75.00
2019-03-23T18:16:15.364Z,71.40
2019-03-23T18:18:47.604Z,74.37
2019-03-23T18:21:19.678Z,70.30
2019-03-23T18:23:51.999Z,71.23
2019-03-23T18:26:23.954Z,78.10
2019-03-23T18:28:57.807Z,71.77
2019-03-23T18:31:30.105Z,74.00
2019-03-23T18:34:05.236Z,69.50
2019-03-23T18:36:39.315Z,76.77
2019-03-23T18:39:17.065Z,80.10
2019-03-23T18:41:55.503Z,83.20
2019-03-23T18:44:29.941Z,83.17
2019-03-23T18:47:07.047Z,78.33
2019-03-23T18:49:43.152Z,83.03
2019-03-23T18:52:20.089Z,82.10
2019-03-23T18:54:58.214Z,80.73
2019-03-23T18:57:35.725Z,86.33
2019-03-23T19:00:19.155Z,85.37
2019-03-23T19:03:01.080Z,85.80
2019-03-23T19:05:39.210Z,87.73
2019-03-23T19:08:14.531Z,93.00
2019-03-23T19:10:56.527Z,82.63
2019-03-23T19:13:38.168Z,81.00
2019-03-23T19:16:14.301Z,89.27
2019-03-23T19:18:46.267Z,83.40
2019-03-23T19:21:20.700Z,86.63
2019-03-23T19:23:52.857Z,81.30
2019-03-23T19:26:39.551Z,93.03
2019-03-23T19:29:24.987Z,83.70
2019-03-23T19:32:01.994Z,81.80
2019-03-23T19:34:51.734Z,84.43
2019-03-23T19:37:21.955Z,77.70
2019-03-23T19:40:00.715Z,80.07
2019-03-23T19:42:46.696Z,88.53
2019-03-23T19:45:41.707Z,89.73
2019-03-23T19:48:19.845Z,81.63
2019-03-23T19:50:54.109Z,70.27
2019-03-23T19:53:27.423Z,86.43
2019-03-23T19:56:02.206Z,84.10
2019-03-23T19:58:37.101Z,84.80
2019-03-23T20:01:10.410Z,81.40
2019-03-23T20:03:47.984Z,77.63
2019-03-23T20:06:25.155Z,86.03
2019-03-23T20:08:58.877Z,76.40
2019-03-23T20:11:31.994Z,83.00
2019-03-23T20:14:10.949Z,71.20
2019-03-23T20:16:49.082Z,79.47
2019-03-23T20:19:27.095Z,81.67
2019-03-23T20:22:02.578Z,75.47
2019-03-23T20:24:42.367Z,80.13
2019-03-23T20:27:11.854Z,84.90
2019-03-23T20:29:49.227Z,78.13
2019-03-23T20:32:29.336Z,84.30
2019-03-23T20:35:11.156Z,73.53
2019-03-23T20:37:48.796Z,75.73
2019-03-23T20:40:20.834Z,79.63
2019-03-23T20:42:56.993Z,75.67
2019-03-23T20:45:32.937Z,81.20
2019-03-23T20:48:11.218Z,79.20
2019-03-23T20:50:51.338Z,84.20
2019-03-23T20:53:26.197Z,87.50
2019-03-23T20:55:59.513Z,77.37
2019-03-23T20:58:34.590Z,80.27
2019-03-23T21:01:23.849Z,83.30
2019-03-23T21:03:57.211Z,74.83
2019-03-23T21:06:28.862Z,82.13
2019-03-23T21:09:03.097Z,86.90
2019-03-23T21:11:36.637Z,82.80
2019-03-23T21:14:20.097Z,87.37
2019-03-23T21:17:02.125Z,79.17
2019-03-23T21:19:36.606Z,87.53
2019-03-23T21:22:08.744Z,82.37
2019-03-23T21:24:42.499Z,78.50
2019-03-23T21:27:17.226Z,89.97
2019-03-23T21:29:51.610Z,81.87
2019-03-23T21:32:42.243Z,79.27
2019-03-23T21:35:15.783Z,88.87
2019-03-23T21:37:53.524Z,77.23
2019-03-23T21:40:25.660Z,86.87
2019-03-23T21:42:58.272Z,82.53
2019-03-23T21:45:44.462Z,87.80
2019-03-23T21:48:24.824Z,83.73
2019-03-23T21:50:58.202Z,78.07
2019-03-23T21:53:31.332Z,86.03
2019-03-23T21:56:05.091Z,80.23
2019-03-23T21:58:45.297Z,81.60
2019-03-23T22:01:19.238Z,87.87
2019-03-23T22:03:55.610Z,87.67
2019-03-23T22:06:30.603Z,89.87
2019-03-23T22:09:26.567Z,83.77
2019-03-23T22:12:03.755Z,91.33
2019-03-23T22:14:41.804Z,80.37
2019-03-23T22:17:13.927Z,86.27
2019-03-23T22:19:46.589Z,81.57
2019-03-23T22:22:22.180Z,85.47
2019-03-23T22:24:56.135Z,85.67
2019-03-23T22:27:30.142Z,87.60
2019-03-23T22:30:02.506Z,83.90
2019-03-23T22:32:35.577Z,86.03
2019-03-23T22:35:17.682Z,88.00
2019-03-23T22:37:52.401Z,90.40
2019-03-23T22:40:28.423Z,87.40
2019-03-23T22:43:13.120Z,88.00
2019-03-23T22:45:48.615Z,96.57
2019-03-23T22:48:20.960Z,88.73
2019-03-23T22:50:57.087Z,91.60
2019-03-23T22:53:29.450Z,94.43
2019-03-23T22:56:13.184Z,89.47
2019-03-23T22:58:45.172Z,86.83
2019-03-23T23:01:20.016Z,88.67
2019-03-23T23:03:51.936Z,83.83
2019-03-23T23:06:27.425Z,83.90
2019-03-23T23:09:01.942Z,83.10
2019-03-23T23:11:37.694Z,95.30
2019-03-23T23:14:11.167Z,91.03
2019-03-23T23:16:47.834Z,95.13
2019-03-23T23:19:20.154Z,87.07
2019-03-23T23:21:52.195Z,89.40
2019-03-23T23:24:27.043Z,91.87
2019-03-23T23:26:58.904Z,83.97
2019-03-23T23:29:33.547Z,89.30
2019-03-23T23:32:05.138Z,90.07
2019-03-23T23:34:37.107Z,85.70
2019-03-23T23:37:09.320Z,83.20
2019-03-23T23:39:41.386Z,83.13
2019-03-23T23:42:14.480Z,78.87
2019-03-23T23:44:48.976Z,86.03
2019-03-23T23:47:25.115Z,82.00
2019-03-23T23:49:57.192Z,82.17
2019-03-23T23:52:31.746Z,92.43
2019-03-23T23:55:03.289Z,93.30
2019-03-23T23:57:37.231Z,94.10
